sensor_id;sensor_type;location;lat;lon;timestamp;temperature;humidity
1359;DHT22;673;48.098;14.422;2023-02-15T00:02:00;0.10;99.90
1359;DHT22;673;48.098;14.422;2023-02-15T00:04:27;0.00;99.90
1359;DHT22;673;48.098;14.422;2023-02-15T00:07:14;0.10;99.90
1359;DHT22;673;48.098;14.422;2023-02-15T00:09:41;0.00;99.90
1359;DHT22;673;48.098;14.422;2023-02-15T00:12:09;0.10;99.90
1359;DHT22;673;48.098;14.422;2023-02-15T00:14:36;0.10;99.90
1359;DHT22;673;48.098;14.422;2023-02-15T00:17:03;0.00;99.90
1359;DHT22;673;48.098;14.422;2023-02-15T00:19:30;0.10;99.90
1359;DHT22;673;48.098;14.422;2023-02-15T00:21:56;0.20;99.90
1359;DHT22;673;48.098;14.422;2023-02-15T00:24:25;0.10;99.90
1359;DHT22;673;48.098;14.422;2023-02-15T00:26:52;0.00;99.90
1359;DHT22;673;48.098;14.422;2023-02-15T00:29:19;-0.10;99.90
1359;DHT22;673;48.098;14.422;2023-02-15T00:31:46;0.00;99.90
1359;DHT22;673;48.098;14.422;2023-02-15T00:34:15;0.00;99.90
1359;DHT22;673;48.098;14.422;2023-02-15T00:36:43;0.00;99.90
1359;DHT22;673;48.098;14.422;2023-02-15T00:39:11;-0.10;99.90
1359;DHT22;673;48.098;14.422;2023-02-15T00:41:40;0.00;99.90
1359;DHT22;673;48.098;14.422;2023-02-15T00:44:07;-0.20;99.90
1359;DHT22;673;48.098;14.422;2023-02-15T00:46:34;-0.10;99.90
1359;DHT22;673;48.098;14.422;2023-02-15T00:49:02;-0.10;99.90
1359;DHT22;673;48.098;14.422;2023-02-15T00:51:29;-0.20;99.90
1359;DHT22;673;48.098;14.422;2023-02-15T00:53:56;-0.10;99.90
1359;DHT22;673;48.098;14.422;2023-02-15T00:56:23;-0.10;99.90
1359;DHT22;673;48.098;14.422;2023-02-15T00:58:51;-0.20;99.90
1359;DHT22;673;48.098;14.422;2023-02-15T01:01:19;-0.10;99.90
1359;DHT22;673;48.098;14.422;2023-02-15T01:03:46;0.10;99.90
1359;DHT22;673;48.098;14.422;2023-02-15T01:06:15;0.00;99.90
1359;DHT22;673;48.098;14.422;2023-02-15T01:08:42;-0.10;99.90
1359;DHT22;673;48.098;14.422;2023-02-15T01:11:12;-0.10;99.90
1359;DHT22;673;48.098;14.422;2023-02-15T01:13:40;0.00;99.90
1359;DHT22;673;48.098;14.422;2023-02-15T01:16:09;0.00;99.90
1359;DHT22;673;48.098;14.422;2023-02-15T01:18:36;0.10;99.90
1359;DHT22;673;48.098;14.422;2023-02-15T01:21:09;0.10;99.90
1359;DHT22;673;48.098;14.422;2023-02-15T01:23:36;0.10;99.90
1359;DHT22;673;48.098;14.422;2023-02-15T01:26:03;0.20;99.90
1359;DHT22;673;48.098;14.422;2023-02-15T01:28:31;0.10;99.90
1359;DHT22;673;48.098;14.422;2023-02-15T01:30:58;0.10;99.90
1359;DHT22;673;48.098;14.422;2023-02-15T01:33:27;-0.10;99.90
1359;DHT22;673;48.098;14.422;2023-02-15T01:35:56;0.00;99.90
1359;DHT22;673;48.098;14.422;2023-02-15T01:38:23;0.00;99.90
1359;DHT22;673;48.098;14.422;2023-02-15T01:40:51;0.00;99.90
1359;DHT22;673;48.098;14.422;2023-02-15T01:43:18;-0.10;99.90
1359;DHT22;673;48.098;14.422;2023-02-15T01:45:47;-0.20;99.90
1359;DHT22;673;48.098;14.422;2023-02-15T01:48:19;-0.10;99.90
1359;DHT22;673;48.098;14.422;2023-02-15T01:50:51;-0.10;99.90
1359;DHT22;673;48.098;14.422;2023-02-15T01:53:23;-0.10;99.90
1359;DHT22;673;48.098;14.422;2023-02-15T01:55:55;-0.10;99.90
1359;DHT22;673;48.098;14.422;2023-02-15T01:58:26;0.00;99.90
1359;DHT22;673;48.098;14.422;2023-02-15T02:00:56;0.00;99.90
1359;DHT22;673;48.098;14.422;2023-02-15T02:03:42;0.00;99.90
1359;DHT22;673;48.098;14.422;2023-02-15T02:06:13;-0.10;99.90
1359;DHT22;673;48.098;14.422;2023-02-15T02:08:40;-0.10;99.90
1359;DHT22;673;48.098;14.422;2023-02-15T02:11:10;-0.10;99.90
1359;DHT22;673;48.098;14.422;2023-02-15T02:13:38;0.00;99.90
1359;DHT22;673;48.098;14.422;2023-02-15T02:16:10;0.10;99.90
1359;DHT22;673;48.098;14.422;2023-02-15T02:18:48;0.00;99.90
1359;DHT22;673;48.098;14.422;2023-02-15T02:21:51;0.00;99.90
1359;DHT22;673;48.098;14.422;2023-02-15T02:24:42;0.00;99.90
1359;DHT22;673;48.098;14.422;2023-02-15T02:27:24;0.00;99.90
1359;DHT22;673;48.098;14.422;2023-02-15T02:36:00;-0.10;99.90
1359;DHT22;673;48.098;14.422;2023-02-15T02:38:45;-0.10;99.90
1359;DHT22;673;48.098;14.422;2023-02-15T02:41:20;0.00;99.90
1359;DHT22;673;48.098;14.422;2023-02-15T02:43:53;0.00;99.90
1359;DHT22;673;48.098;14.422;2023-02-15T02:46:26;0.10;99.90
1359;DHT22;673;48.098;14.422;2023-02-15T02:48:56;0.10;99.90
1359;DHT22;673;48.098;14.422;2023-02-15T02:51:24;0.10;99.90
1359;DHT22;673;48.098;14.422;2023-02-15T02:53:54;0.10;99.90
1359;DHT22;673;48.098;14.422;2023-02-15T02:56:25;0.10;99.90
1359;DHT22;673;48.098;14.422;2023-02-15T02:58:57;0.00;99.90
1359;DHT22;673;48.098;14.422;2023-02-15T03:01:28;-0.10;99.90
1359;DHT22;673;48.098;14.422;2023-02-15T03:03:59;0.00;99.90
1359;DHT22;673;48.098;14.422;2023-02-15T03:06:34;0.00;99.90
1359;DHT22;673;48.098;14.422;2023-02-15T03:09:08;0.00;99.90
1359;DHT22;673;48.098;14.422;2023-02-15T03:11:40;0.00;99.90
1359;DHT22;673;48.098;14.422;2023-02-15T03:14:08;-0.10;99.90
1359;DHT22;673;48.098;14.422;2023-02-15T03:16:35;0.00;99.90
1359;DHT22;673;48.098;14.422;2023-02-15T03:19:07;-0.10;99.90
1359;DHT22;673;48.098;14.422;2023-02-15T03:21:40;0.10;99.90
1359;DHT22;673;48.098;14.422;2023-02-15T03:24:12;0.00;99.90
1359;DHT22;673;48.098;14.422;2023-02-15T03:26:45;0.10;99.90
1359;DHT22;673;48.098;14.422;2023-02-15T03:29:13;0.10;99.90
1359;DHT22;673;48.098;14.422;2023-02-15T03:31:43;0.00;99.90
1359;DHT22;673;48.098;14.422;2023-02-15T03:34:13;0.00;99.90
1359;DHT22;673;48.098;14.422;2023-02-15T03:36:45;0.00;99.90
1359;DHT22;673;48.098;14.422;2023-02-15T03:39:18;0.10;99.90
1359;DHT22;673;48.098;14.422;2023-02-15T03:41:54;0.10;99.90
1359;DHT22;673;48.098;14.422;2023-02-15T03:44:27;0.20;99.90
1359;DHT22;673;48.098;14.422;2023-02-15T03:46:58;0.10;99.90
1359;DHT22;673;48.098;14.422;2023-02-15T03:49:34;0.10;99.90
1359;DHT22;673;48.098;14.422;2023-02-15T03:52:04;0.00;99.90
1359;DHT22;673;48.098;14.422;2023-02-15T03:54:33;0.00;99.90
1359;DHT22;673;48.098;14.422;2023-02-15T03:57:14;0.00;99.90
1359;DHT22;673;48.098;14.422;2023-02-15T03:59:59;0.00;99.90
1359;DHT22;673;48.098;14.422;2023-02-15T04:03:06;0.00;99.90
1359;DHT22;673;48.098;14.422;2023-02-15T04:05:37;0.00;99.90
1359;DHT22;673;48.098;14.422;2023-02-15T04:08:05;0.00;99.90
1359;DHT22;673;48.098;14.422;2023-02-15T04:10:32;0.00;99.90
1359;DHT22;673;48.098;14.422;2023-02-15T04:13:16;0.10;99.90
1359;DHT22;673;48.098;14.422;2023-02-15T04:15:43;0.10;99.90
1359;DHT22;673;48.098;14.422;2023-02-15T04:18:28;0.10;99.90
1359;DHT22;673;48.098;14.422;2023-02-15T04:21:13;0.00;99.90
1359;DHT22;673;48.098;14.422;2023-02-15T04:23:57;0.10;99.90
1359;DHT22;673;48.098;14.422;2023-02-15T04:26:42;0.10;99.90
1359;DHT22;673;48.098;14.422;2023-02-15T04:29:09;0.20;99.90
1359;DHT22;673;48.098;14.422;2023-02-15T04:31:36;0.20;99.90
1359;DHT22;673;48.098;14.422;2023-02-15T04:34:03;0.20;99.90
1359;DHT22;673;48.098;14.422;2023-02-15T04:36:31;0.20;99.90
1359;DHT22;673;48.098;14.422;2023-02-15T04:38:58;0.20;99.90
1359;DHT22;673;48.098;14.422;2023-02-15T04:41:25;0.10;99.90
1359;DHT22;673;48.098;14.422;2023-02-15T04:43:52;0.20;99.90
1359;DHT22;673;48.098;14.422;2023-02-15T04:46:19;0.20;99.90
1359;DHT22;673;48.098;14.422;2023-02-15T04:48:46;0.20;99.90
1359;DHT22;673;48.098;14.422;2023-02-15T04:51:13;0.10;99.90
1359;DHT22;673;48.098;14.422;2023-02-15T04:53:41;0.10;99.90
1359;DHT22;673;48.098;14.422;2023-02-15T04:56:08;0.10;99.90
1359;DHT22;673;48.098;14.422;2023-02-15T04:58:35;0.10;99.90
1359;DHT22;673;48.098;14.422;2023-02-15T05:01:03;0.20;99.90
1359;DHT22;673;48.098;14.422;2023-02-15T05:03:30;0.20;99.90
1359;DHT22;673;48.098;14.422;2023-02-15T05:05:56;0.20;99.90
1359;DHT22;673;48.098;14.422;2023-02-15T05:08:23;0.20;99.90
1359;DHT22;673;48.098;14.422;2023-02-15T05:10:52;0.20;99.90
1359;DHT22;673;48.098;14.422;2023-02-15T05:13:19;0.10;99.90
1359;DHT22;673;48.098;14.422;2023-02-15T05:15:49;0.00;99.90
1359;DHT22;673;48.098;14.422;2023-02-15T05:18:18;0.10;99.90
1359;DHT22;673;48.098;14.422;2023-02-15T05:20:45;0.10;99.90
1359;DHT22;673;48.098;14.422;2023-02-15T05:23:12;0.10;99.90
1359;DHT22;673;48.098;14.422;2023-02-15T05:25:39;0.10;99.90
1359;DHT22;673;48.098;14.422;2023-02-15T05:28:27;0.10;99.90
1359;DHT22;673;48.098;14.422;2023-02-15T05:31:02;0.00;99.90
1359;DHT22;673;48.098;14.422;2023-02-15T05:33:30;0.00;99.90
1359;DHT22;673;48.098;14.422;2023-02-15T05:35:57;-0.10;99.90
1359;DHT22;673;48.098;14.422;2023-02-15T05:38:24;0.00;99.90
1359;DHT22;673;48.098;14.422;2023-02-15T05:40:51;0.10;99.90
1359;DHT22;673;48.098;14.422;2023-02-15T05:43:18;0.00;99.90
1359;DHT22;673;48.098;14.422;2023-02-15T05:45:48;0.00;99.90
1359;DHT22;673;48.098;14.422;2023-02-15T05:48:15;0.00;99.90
1359;DHT22;673;48.098;14.422;2023-02-15T05:50:42;0.10;99.90
1359;DHT22;673;48.098;14.422;2023-02-15T05:53:09;0.10;99.90
1359;DHT22;673;48.098;14.422;2023-02-15T05:55:37;0.20;99.90
1359;DHT22;673;48.098;14.422;2023-02-15T05:58:04;0.20;99.90
1359;DHT22;673;48.098;14.422;2023-02-15T06:00:32;0.30;99.90
1359;DHT22;673;48.098;14.422;2023-02-15T06:03:00;0.20;99.90
1359;DHT22;673;48.098;14.422;2023-02-15T06:05:27;0.20;99.90
1359;DHT22;673;48.098;14.422;2023-02-15T06:07:54;0.30;99.90
1359;DHT22;673;48.098;14.422;2023-02-15T06:10:21;0.10;99.90
1359;DHT22;673;48.098;14.422;2023-02-15T06:12:48;0.10;99.90
1359;DHT22;673;48.098;14.422;2023-02-15T06:15:15;0.10;99.90
1359;DHT22;673;48.098;14.422;2023-02-15T06:17:42;0.10;99.90
1359;DHT22;673;48.098;14.422;2023-02-15T06:20:11;0.00;99.90
1359;DHT22;673;48.098;14.422;2023-02-15T06:22:38;0.00;99.90
1359;DHT22;673;48.098;14.422;2023-02-15T06:25:06;0.10;99.90
1359;DHT22;673;48.098;14.422;2023-02-15T06:27:35;0.10;99.90
1359;DHT22;673;48.098;14.422;2023-02-15T06:30:03;0.10;99.90
1359;DHT22;673;48.098;14.422;2023-02-15T06:32:31;0.10;99.90
1359;DHT22;673;48.098;14.422;2023-02-15T06:34:58;0.10;99.90
1359;DHT22;673;48.098;14.422;2023-02-15T06:37:26;0.10;99.90
1359;DHT22;673;48.098;14.422;2023-02-15T06:39:53;0.20;99.90
1359;DHT22;673;48.098;14.422;2023-02-15T06:42:21;0.10;99.90
1359;DHT22;673;48.098;14.422;2023-02-15T06:44:48;0.10;99.90
1359;DHT22;673;48.098;14.422;2023-02-15T06:47:15;0.30;99.90
1359;DHT22;673;48.098;14.422;2023-02-15T06:49:42;0.30;99.90
1359;DHT22;673;48.098;14.422;2023-02-15T06:52:09;0.30;99.90
1359;DHT22;673;48.098;14.422;2023-02-15T06:54:37;0.30;99.90
1359;DHT22;673;48.098;14.422;2023-02-15T06:57:04;0.40;99.90
1359;DHT22;673;48.098;14.422;2023-02-15T06:59:31;0.20;99.90
1359;DHT22;673;48.098;14.422;2023-02-15T07:01:58;0.10;99.90
1359;DHT22;673;48.098;14.422;2023-02-15T07:04:25;0.20;99.90
1359;DHT22;673;48.098;14.422;2023-02-15T07:06:54;0.30;99.90
1359;DHT22;673;48.098;14.422;2023-02-15T07:09:21;0.20;99.90
1359;DHT22;673;48.098;14.422;2023-02-15T07:11:49;0.20;99.90
1359;DHT22;673;48.098;14.422;2023-02-15T07:14:34;0.30;99.90
1359;DHT22;673;48.098;14.422;2023-02-15T07:17:01;0.30;99.90
1359;DHT22;673;48.098;14.422;2023-02-15T07:19:28;0.30;99.90
1359;DHT22;673;48.098;14.422;2023-02-15T07:21:55;0.40;99.90
1359;DHT22;673;48.098;14.422;2023-02-15T07:24:22;0.40;99.90
1359;DHT22;673;48.098;14.422;2023-02-15T07:26:50;0.40;99.90
1359;DHT22;673;48.098;14.422;2023-02-15T07:29:17;0.40;99.90
1359;DHT22;673;48.098;14.422;2023-02-15T07:31:44;0.40;99.90
1359;DHT22;673;48.098;14.422;2023-02-15T07:34:11;0.40;99.90
1359;DHT22;673;48.098;14.422;2023-02-15T07:36:38;0.30;99.90
1359;DHT22;673;48.098;14.422;2023-02-15T07:39:05;0.30;99.90
1359;DHT22;673;48.098;14.422;2023-02-15T07:41:32;0.40;99.90
1359;DHT22;673;48.098;14.422;2023-02-15T07:44:00;0.40;99.90
1359;DHT22;673;48.098;14.422;2023-02-15T07:46:28;0.40;99.90
1359;DHT22;673;48.098;14.422;2023-02-15T07:48:55;0.50;99.90
1359;DHT22;673;48.098;14.422;2023-02-15T07:51:22;0.50;99.90
1359;DHT22;673;48.098;14.422;2023-02-15T07:53:49;0.50;99.90
1359;DHT22;673;48.098;14.422;2023-02-15T07:56:17;0.40;99.90
1359;DHT22;673;48.098;14.422;2023-02-15T07:58:44;0.40;99.90
1359;DHT22;673;48.098;14.422;2023-02-15T08:01:24;0.40;99.90
1359;DHT22;673;48.098;14.422;2023-02-15T08:03:52;0.40;99.90
1359;DHT22;673;48.098;14.422;2023-02-15T08:06:19;0.40;99.90
1359;DHT22;673;48.098;14.422;2023-02-15T08:08:46;0.50;99.90
1359;DHT22;673;48.098;14.422;2023-02-15T08:11:19;0.50;99.90
1359;DHT22;673;48.098;14.422;2023-02-15T08:13:53;0.40;99.90
1359;DHT22;673;48.098;14.422;2023-02-15T08:16:26;0.40;99.90
1359;DHT22;673;48.098;14.422;2023-02-15T08:18:54;0.50;99.90
1359;DHT22;673;48.098;14.422;2023-02-15T08:21:22;0.60;99.90
1359;DHT22;673;48.098;14.422;2023-02-15T08:23:49;0.70;99.90
1359;DHT22;673;48.098;14.422;2023-02-15T08:26:16;0.50;99.90
1359;DHT22;673;48.098;14.422;2023-02-15T08:28:43;0.60;99.90
1359;DHT22;673;48.098;14.422;2023-02-15T08:31:12;0.60;99.90
1359;DHT22;673;48.098;14.422;2023-02-15T08:33:43;0.50;99.90
1359;DHT22;673;48.098;14.422;2023-02-15T08:36:11;0.60;99.90
1359;DHT22;673;48.098;14.422;2023-02-15T08:38:39;0.70;99.90
1359;DHT22;673;48.098;14.422;2023-02-15T08:41:14;0.80;99.90
1359;DHT22;673;48.098;14.422;2023-02-15T08:43:42;0.80;99.90
1359;DHT22;673;48.098;14.422;2023-02-15T08:46:10;0.80;99.90
1359;DHT22;673;48.098;14.422;2023-02-15T08:48:38;0.70;99.90
1359;DHT22;673;48.098;14.422;2023-02-15T08:51:08;0.70;99.90
1359;DHT22;673;48.098;14.422;2023-02-15T08:53:38;0.80;99.90
1359;DHT22;673;48.098;14.422;2023-02-15T08:56:05;0.70;99.90
1359;DHT22;673;48.098;14.422;2023-02-15T08:58:33;0.60;99.90
1359;DHT22;673;48.098;14.422;2023-02-15T09:01:00;0.80;99.90
1359;DHT22;673;48.098;14.422;2023-02-15T09:03:28;0.80;99.90
1359;DHT22;673;48.098;14.422;2023-02-15T09:06:02;0.80;99.90
1359;DHT22;673;48.098;14.422;2023-02-15T09:08:30;0.80;99.90
1359;DHT22;673;48.098;14.422;2023-02-15T09:11:09;0.80;99.90
1359;DHT22;673;48.098;14.422;2023-02-15T09:13:36;0.70;99.90
1359;DHT22;673;48.098;14.422;2023-02-15T09:16:05;0.80;99.90
1359;DHT22;673;48.098;14.422;2023-02-15T09:18:34;0.80;99.90
1359;DHT22;673;48.098;14.422;2023-02-15T09:21:07;0.80;99.90
1359;DHT22;673;48.098;14.422;2023-02-15T09:23:36;0.90;99.90
1359;DHT22;673;48.098;14.422;2023-02-15T09:26:05;0.90;99.90
1359;DHT22;673;48.098;14.422;2023-02-15T09:28:32;1.00;99.90
1359;DHT22;673;48.098;14.422;2023-02-15T09:31:07;1.10;99.90
1359;DHT22;673;48.098;14.422;2023-02-15T09:33:36;1.20;99.90
1359;DHT22;673;48.098;14.422;2023-02-15T09:36:04;1.10;99.90
1359;DHT22;673;48.098;14.422;2023-02-15T09:38:31;1.10;99.90
1359;DHT22;673;48.098;14.422;2023-02-15T09:41:08;1.30;99.90
1359;DHT22;673;48.098;14.422;2023-02-15T09:43:44;1.30;99.90
1359;DHT22;673;48.098;14.422;2023-02-15T09:46:33;1.40;99.90
1359;DHT22;673;48.098;14.422;2023-02-15T09:49:10;1.40;99.90
1359;DHT22;673;48.098;14.422;2023-02-15T09:51:56;1.30;99.90
1359;DHT22;673;48.098;14.422;2023-02-15T09:54:37;1.20;99.90
1359;DHT22;673;48.098;14.422;2023-02-15T09:57:16;1.10;99.90
1359;DHT22;673;48.098;14.422;2023-02-15T09:59:54;1.10;99.90
1359;DHT22;673;48.098;14.422;2023-02-15T10:02:36;1.30;99.90
1359;DHT22;673;48.098;14.422;2023-02-15T10:05:13;1.30;99.90
1359;DHT22;673;48.098;14.422;2023-02-15T10:07:58;1.30;99.90
1359;DHT22;673;48.098;14.422;2023-02-15T10:10:34;1.30;99.90
1359;DHT22;673;48.098;14.422;2023-02-15T10:13:19;1.10;99.90
1359;DHT22;673;48.098;14.422;2023-02-15T10:16:06;1.20;99.90
1359;DHT22;673;48.098;14.422;2023-02-15T10:18:48;1.20;99.90
1359;DHT22;673;48.098;14.422;2023-02-15T10:21:26;1.20;99.90
1359;DHT22;673;48.098;14.422;2023-02-15T10:24:29;1.20;99.90
1359;DHT22;673;48.098;14.422;2023-02-15T10:27:10;1.30;99.90
1359;DHT22;673;48.098;14.422;2023-02-15T10:29:45;1.30;99.90
1359;DHT22;673;48.098;14.422;2023-02-15T10:32:21;1.30;99.90
1359;DHT22;673;48.098;14.422;2023-02-15T10:34:52;1.30;99.90
1359;DHT22;673;48.098;14.422;2023-02-15T10:37:36;1.30;99.90
1359;DHT22;673;48.098;14.422;2023-02-15T10:40:15;1.50;99.90
1359;DHT22;673;48.098;14.422;2023-02-15T10:43:10;1.40;99.90
1359;DHT22;673;48.098;14.422;2023-02-15T10:45:49;1.20;99.90
1359;DHT22;673;48.098;14.422;2023-02-15T10:48:38;1.30;99.90
1359;DHT22;673;48.098;14.422;2023-02-15T10:51:15;1.40;99.90
1359;DHT22;673;48.098;14.422;2023-02-15T10:54:09;1.40;99.90
1359;DHT22;673;48.098;14.422;2023-02-15T10:56:45;1.50;99.90
1359;DHT22;673;48.098;14.422;2023-02-15T10:59:44;1.40;99.90
1359;DHT22;673;48.098;14.422;2023-02-15T11:02:25;1.30;99.90
1359;DHT22;673;48.098;14.422;2023-02-15T11:05:08;1.20;99.90
1359;DHT22;673;48.098;14.422;2023-02-15T11:07:45;1.30;99.90
1359;DHT22;673;48.098;14.422;2023-02-15T11:10:22;1.50;99.90
1359;DHT22;673;48.098;14.422;2023-02-15T11:13:01;1.30;99.90
1359;DHT22;673;48.098;14.422;2023-02-15T11:15:35;1.20;99.90
1359;DHT22;673;48.098;14.422;2023-02-15T11:18:15;1.50;99.90
1359;DHT22;673;48.098;14.422;2023-02-15T11:20:53;1.50;99.90
1359;DHT22;673;48.098;14.422;2023-02-15T11:23:24;1.80;99.90
1359;DHT22;673;48.098;14.422;2023-02-15T11:25:59;1.80;99.90
1359;DHT22;673;48.098;14.422;2023-02-15T11:28:31;1.90;99.90
1359;DHT22;673;48.098;14.422;2023-02-15T11:31:04;2.00;99.90
1359;DHT22;673;48.098;14.422;2023-02-15T11:33:43;2.00;99.90
1359;DHT22;673;48.098;14.422;2023-02-15T11:36:14;1.90;99.90
1359;DHT22;673;48.098;14.422;2023-02-15T11:38:43;1.80;99.90
1359;DHT22;673;48.098;14.422;2023-02-15T11:41:16;1.80;99.90
1359;DHT22;673;48.098;14.422;2023-02-15T11:43:49;1.70;99.90
1359;DHT22;673;48.098;14.422;2023-02-15T11:46:17;1.80;99.90
1359;DHT22;673;48.098;14.422;2023-02-15T11:48:48;1.80;99.90
1359;DHT22;673;48.098;14.422;2023-02-15T11:51:16;1.50;99.90
1359;DHT22;673;48.098;14.422;2023-02-15T11:53:45;1.40;99.90
1359;DHT22;673;48.098;14.422;2023-02-15T11:56:14;1.40;99.90
1359;DHT22;673;48.098;14.422;2023-02-15T11:58:45;1.40;99.90
1359;DHT22;673;48.098;14.422;2023-02-15T12:01:16;1.60;99.90
1359;DHT22;673;48.098;14.422;2023-02-15T12:03:48;1.80;99.90
1359;DHT22;673;48.098;14.422;2023-02-15T12:06:24;1.70;99.90
1359;DHT22;673;48.098;14.422;2023-02-15T12:09:03;1.70;99.90
1359;DHT22;673;48.098;14.422;2023-02-15T12:11:35;1.60;99.90
1359;DHT22;673;48.098;14.422;2023-02-15T12:14:04;1.40;99.90
1359;DHT22;673;48.098;14.422;2023-02-15T12:16:46;1.40;99.90
1359;DHT22;673;48.098;14.422;2023-02-15T12:19:33;1.50;99.90
1359;DHT22;673;48.098;14.422;2023-02-15T12:22:03;1.60;99.90
1359;DHT22;673;48.098;14.422;2023-02-15T12:24:33;1.80;99.90
1359;DHT22;673;48.098;14.422;2023-02-15T12:27:04;1.80;99.90
1359;DHT22;673;48.098;14.422;2023-02-15T12:29:39;2.00;99.90
1359;DHT22;673;48.098;14.422;2023-02-15T12:32:10;1.90;99.90
1359;DHT22;673;48.098;14.422;2023-02-15T12:34:40;2.10;99.90
1359;DHT22;673;48.098;14.422;2023-02-15T12:37:10;2.10;99.90
1359;DHT22;673;48.098;14.422;2023-02-15T12:39:51;2.20;99.90
1359;DHT22;673;48.098;14.422;2023-02-15T12:42:18;2.20;99.90
1359;DHT22;673;48.098;14.422;2023-02-15T12:45:19;1.90;99.90
1359;DHT22;673;48.098;14.422;2023-02-15T12:47:46;1.70;99.90
1359;DHT22;673;48.098;14.422;2023-02-15T12:50:22;1.60;99.90
1359;DHT22;673;48.098;14.422;2023-02-15T12:53:06;1.60;99.90
1359;DHT22;673;48.098;14.422;2023-02-15T12:55:33;1.80;99.90
1359;DHT22;673;48.098;14.422;2023-02-15T12:58:08;2.00;99.90
1359;DHT22;673;48.098;14.422;2023-02-15T13:00:35;1.90;99.90
1359;DHT22;673;48.098;14.422;2023-02-15T13:03:03;1.90;99.90
1359;DHT22;673;48.098;14.422;2023-02-15T13:05:37;1.70;99.90
1359;DHT22;673;48.098;14.422;2023-02-15T13:08:11;1.90;99.90
1359;DHT22;673;48.098;14.422;2023-02-15T13:10:41;1.90;99.90
1359;DHT22;673;48.098;14.422;2023-02-15T13:13:10;1.90;99.90
1359;DHT22;673;48.098;14.422;2023-02-15T13:15:40;1.80;99.90
1359;DHT22;673;48.098;14.422;2023-02-15T13:18:14;2.10;99.90
1359;DHT22;673;48.098;14.422;2023-02-15T13:20:44;2.00;99.90
1359;DHT22;673;48.098;14.422;2023-02-15T13:23:24;2.10;99.90
1359;DHT22;673;48.098;14.422;2023-02-15T13:25:54;2.20;99.90
1359;DHT22;673;48.098;14.422;2023-02-15T13:28:26;2.30;99.90
1359;DHT22;673;48.098;14.422;2023-02-15T13:30:54;2.10;99.90
1359;DHT22;673;48.098;14.422;2023-02-15T13:33:26;2.10;99.90
1359;DHT22;673;48.098;14.422;2023-02-15T13:36:02;2.00;99.90
1359;DHT22;673;48.098;14.422;2023-02-15T13:38:46;1.90;99.90
1359;DHT22;673;48.098;14.422;2023-02-15T13:41:19;1.70;99.90
1359;DHT22;673;48.098;14.422;2023-02-15T13:43:54;1.60;99.90
1359;DHT22;673;48.098;14.422;2023-02-15T13:46:45;1.70;99.90
1359;DHT22;673;48.098;14.422;2023-02-15T13:49:23;1.70;99.90
1359;DHT22;673;48.098;14.422;2023-02-15T13:52:04;1.80;99.90
1359;DHT22;673;48.098;14.422;2023-02-15T13:57:49;1.60;99.90
1359;DHT22;673;48.098;14.422;2023-02-15T14:00:23;1.60;99.90
1359;DHT22;673;48.098;14.422;2023-02-15T14:03:06;1.50;99.90
1359;DHT22;673;48.098;14.422;2023-02-15T14:05:50;1.60;99.90
1359;DHT22;673;48.098;14.422;2023-02-15T14:08:30;1.50;99.90
1359;DHT22;673;48.098;14.422;2023-02-15T14:11:04;1.60;99.90
1359;DHT22;673;48.098;14.422;2023-02-15T14:16:40;1.70;99.90
1359;DHT22;673;48.098;14.422;2023-02-15T14:19:18;1.90;99.90
1359;DHT22;673;48.098;14.422;2023-02-15T14:21:51;1.80;99.90
1359;DHT22;673;48.098;14.422;2023-02-15T14:24:35;1.50;99.90
1359;DHT22;673;48.098;14.422;2023-02-15T14:27:13;1.60;99.90
1359;DHT22;673;48.098;14.422;2023-02-15T14:29:48;1.50;99.90
1359;DHT22;673;48.098;14.422;2023-02-15T14:32:20;1.70;99.90
1359;DHT22;673;48.098;14.422;2023-02-15T14:34:50;1.70;99.90
1359;DHT22;673;48.098;14.422;2023-02-15T14:37:22;1.70;99.90
1359;DHT22;673;48.098;14.422;2023-02-15T14:39:57;1.60;99.90
1359;DHT22;673;48.098;14.422;2023-02-15T14:42:52;1.70;99.90
1359;DHT22;673;48.098;14.422;2023-02-15T14:45:26;1.70;99.90
1359;DHT22;673;48.098;14.422;2023-02-15T14:48:04;1.50;99.90
1359;DHT22;673;48.098;14.422;2023-02-15T14:50:42;1.30;99.90
1359;DHT22;673;48.098;14.422;2023-02-15T14:53:34;1.30;99.90
1359;DHT22;673;48.098;14.422;2023-02-15T14:56:23;1.20;99.90
1359;DHT22;673;48.098;14.422;2023-02-15T14:58:56;1.20;99.90
1359;DHT22;673;48.098;14.422;2023-02-15T15:01:26;1.30;99.90
1359;DHT22;673;48.098;14.422;2023-02-15T15:03:57;1.40;99.90
1359;DHT22;673;48.098;14.422;2023-02-15T15:06:27;1.30;99.90
1359;DHT22;673;48.098;14.422;2023-02-15T15:08:58;1.20;99.90
1359;DHT22;673;48.098;14.422;2023-02-15T15:11:45;1.40;99.90
1359;DHT22;673;48.098;14.422;2023-02-15T15:14:39;1.50;99.90
1359;DHT22;673;48.098;14.422;2023-02-15T15:17:08;1.50;99.90
1359;DHT22;673;48.098;14.422;2023-02-15T15:20:04;1.30;99.90
1359;DHT22;673;48.098;14.422;2023-02-15T15:22:35;1.10;99.90
1359;DHT22;673;48.098;14.422;2023-02-15T15:25:07;1.00;99.90
1359;DHT22;673;48.098;14.422;2023-02-15T15:27:48;0.90;99.90
1359;DHT22;673;48.098;14.422;2023-02-15T15:46:10;0.60;99.90
1359;DHT22;673;48.098;14.422;2023-02-15T15:48:40;0.60;99.90
1359;DHT22;673;48.098;14.422;2023-02-15T15:51:12;0.50;99.90
1359;DHT22;673;48.098;14.422;2023-02-15T15:53:52;0.60;99.90
1359;DHT22;673;48.098;14.422;2023-02-15T15:56:40;0.70;99.90
1359;DHT22;673;48.098;14.422;2023-02-15T15:59:18;0.60;99.90
1359;DHT22;673;48.098;14.422;2023-02-15T16:01:47;0.70;99.90
1359;DHT22;673;48.098;14.422;2023-02-15T16:04:22;0.60;99.90
1359;DHT22;673;48.098;14.422;2023-02-15T16:06:50;0.60;99.90
1359;DHT22;673;48.098;14.422;2023-02-15T16:09:19;0.80;99.90
1359;DHT22;673;48.098;14.422;2023-02-15T16:11:47;0.70;99.90
1359;DHT22;673;48.098;14.422;2023-02-15T16:14:23;0.70;99.90
1359;DHT22;673;48.098;14.422;2023-02-15T16:16:54;0.60;99.90
1359;DHT22;673;48.098;14.422;2023-02-15T16:19:24;0.50;99.90
1359;DHT22;673;48.098;14.422;2023-02-15T16:21:53;0.50;99.90
1359;DHT22;673;48.098;14.422;2023-02-15T16:24:48;0.60;99.90
1359;DHT22;673;48.098;14.422;2023-02-15T16:27:30;0.60;99.90
1359;DHT22;673;48.098;14.422;2023-02-15T16:33:05;0.40;99.90
1359;DHT22;673;48.098;14.422;2023-02-15T16:35:33;0.40;99.90
1359;DHT22;673;48.098;14.422;2023-02-15T16:38:00;0.40;99.90
1359;DHT22;673;48.098;14.422;2023-02-15T16:40:35;0.30;99.90
1359;DHT22;673;48.098;14.422;2023-02-15T16:43:13;0.30;99.90
1359;DHT22;673;48.098;14.422;2023-02-15T16:45:43;0.30;99.90
1359;DHT22;673;48.098;14.422;2023-02-15T16:48:16;0.20;99.90
1359;DHT22;673;48.098;14.422;2023-02-15T16:50:48;0.30;99.90
1359;DHT22;673;48.098;14.422;2023-02-15T16:53:19;0.40;99.90
1359;DHT22;673;48.098;14.422;2023-02-15T16:55:50;0.40;99.90
1359;DHT22;673;48.098;14.422;2023-02-15T16:58:25;0.50;99.90
1359;DHT22;673;48.098;14.422;2023-02-15T17:00:57;0.40;99.90
1359;DHT22;673;48.098;14.422;2023-02-15T17:03:26;0.40;99.90
1359;DHT22;673;48.098;14.422;2023-02-15T17:05:55;0.40;99.90
1359;DHT22;673;48.098;14.422;2023-02-15T17:08:28;0.50;99.90
1359;DHT22;673;48.098;14.422;2023-02-15T17:11:14;0.30;99.90
1359;DHT22;673;48.098;14.422;2023-02-15T17:14:12;0.30;99.90
1359;DHT22;673;48.098;14.422;2023-02-15T17:16:44;0.30;99.90
1359;DHT22;673;48.098;14.422;2023-02-15T17:19:15;0.40;99.90
1359;DHT22;673;48.098;14.422;2023-02-15T17:21:48;0.30;99.90
1359;DHT22;673;48.098;14.422;2023-02-15T17:24:16;0.30;99.90